Time;durP1;ratioP1;P1;durP2;ratioP2;P2;SDS_P1;SDS_P2;PMS_P1;PMS_P2;Temp;Humidity;BMP_temperature;BMP_pressure;BME280_temperature;BME280_humidity;BME280_pressure;Samples;Min_cycle;Max_cycle;Signal;HPM_P1;HPM_P2
2023/07/18 00:03:03;;;;;;;2.30;1.53;;;;;;;15.70;86.11;101909.25;6131131;28;20546;-70
2023/07/18 00:06:25;;;;;;;2.00;1.37;;;;;;;15.71;86.41;101897.34;6123753;28;20230;-69
2023/07/18 00:09:46;;;;;;;2.70;1.73;;;;;;;15.76;86.54;101900.50;6096956;28;20306;-69
2023/07/18 00:13:08;;;;;;;3.40;1.73;;;;;;;15.64;87.59;101899.81;6123441;28;20267;-70
2023/07/18 00:16:29;;;;;;;4.10;2.40;;;;;;;15.81;87.61;101911.81;6119611;28;23100;-70
2023/07/18 00:19:50;;;;;;;2.53;2.23;;;;;;;15.76;87.73;101903.22;6115343;28;20620;-70
2023/07/18 00:23:12;;;;;;;2.67;1.70;;;;;;;15.79;87.98;101902.94;6135213;28;20235;-69
2023/07/18 00:26:33;;;;;;;2.93;2.10;;;;;;;15.65;88.72;101896.06;6127356;28;20247;-69
2023/07/18 00:29:55;;;;;;;4.47;2.37;;;;;;;15.75;88.55;101890.66;6120755;28;20230;-69
2023/07/18 00:33:16;;;;;;;2.23;1.97;;;;;;;15.81;88.49;101890.91;6125009;28;20244;-69
2023/07/18 00:36:37;;;;;;;2.87;2.30;;;;;;;15.79;88.56;101898.34;6117691;28;20233;-70
2023/07/18 00:40:02;;;;;;;7.33;2.73;;;;;;;15.79;88.66;101889.34;6107389;28;20609;-70
2023/07/18 00:43:23;;;;;;;3.07;2.33;;;;;;;15.68;89.06;101893.09;6119193;28;20259;-70
2023/07/18 00:46:43;;;;;;;8.40;2.63;;;;;;;15.53;90.23;101896.38;6110240;28;20314;-69
2023/07/18 00:50:07;;;;;;;2.70;2.33;;;;;;;15.63;90.39;101898.09;6094224;28;20247;-69
2023/07/18 00:53:28;;;;;;;3.47;2.97;;;;;;;15.61;91.21;101896.50;6104513;28;20243;-69
2023/07/18 00:56:52;;;;;;;4.07;2.10;;;;;;;15.63;91.20;101889.94;6131202;28;20234;-70
2023/07/18 01:00:16;;;;;;;4.33;3.07;;;;;;;15.57;92.10;101890.50;6119140;28;20230;-70
2023/07/18 01:03:39;;;;;;;4.13;2.97;;;;;;;15.65;92.42;101895.22;6136856;28;20235;-70
2023/07/18 01:07:00;;;;;;;4.43;2.67;;;;;;;15.59;92.51;101893.06;6127632;28;20234;-70
2023/07/18 01:10:23;;;;;;;5.77;3.23;;;;;;;15.64;92.87;101897.09;6122771;28;21020;-70
2023/07/18 01:13:46;;;;;;;3.70;3.27;;;;;;;15.69;92.98;101897.50;6126258;28;20232;-70
2023/07/18 01:17:08;;;;;;;6.80;3.33;;;;;;;15.58;93.12;101897.63;6095843;28;20503;-69
2023/07/18 01:20:30;;;;;;;4.70;2.87;;;;;;;15.73;93.54;101890.78;6093444;28;20786;-70
2023/07/18 01:23:53;;;;;;;8.20;4.47;;;;;;;15.74;93.76;101895.22;6124812;28;21095;-71
2023/07/18 01:27:14;;;;;;;10.93;3.97;;;;;;;15.78;93.51;101896.66;6124119;28;20227;-70
2023/07/18 01:30:35;;;;;;;4.03;3.13;;;;;;;15.85;93.84;101891.50;6113687;28;20239;-69
2023/07/18 01:33:57;;;;;;;7.20;3.43;;;;;;;15.88;93.76;101886.59;6117254;28;20582;-70
2023/07/18 01:37:18;;;;;;;4.83;3.80;;;;;;;15.77;93.79;101889.47;6108280;28;20236;-70
2023/07/18 01:40:40;;;;;;;15.43;4.47;;;;;;;15.72;93.78;101880.91;6111504;28;20826;-70
2023/07/18 01:44:01;;;;;;;4.23;3.43;;;;;;;15.65;93.85;101879.75;6125699;28;20330;-70
2023/07/18 01:47:22;;;;;;;7.00;3.57;;;;;;;15.55;94.67;101883.50;6128193;28;20235;-68
2023/07/18 01:50:43;;;;;;;11.23;4.60;;;;;;;15.66;94.50;101878.78;6125937;28;20246;-70
2023/07/18 01:54:04;;;;;;;6.53;4.33;;;;;;;15.74;95.00;101880.75;6133507;28;20227;-70
2023/07/18 01:57:29;;;;;;;8.50;4.97;;;;;;;15.59;95.23;101885.78;6100160;28;20243;-69
2023/07/18 02:00:50;;;;;;;6.63;4.53;;;;;;;15.59;95.60;101877.63;6117460;28;20230;-70
2023/07/18 02:04:11;;;;;;;7.47;4.80;;;;;;;15.68;95.72;101890.38;6123100;28;20251;-70
2023/07/18 02:07:32;;;;;;;14.10;4.93;;;;;;;15.53;95.58;101878.22;6113368;28;20250;-70
2023/07/18 02:10:53;;;;;;;4.63;3.93;;;;;;;15.65;95.96;101879.75;6123976;28;20230;-69
2023/07/18 02:14:19;;;;;;;5.27;4.20;;;;;;;15.69;95.59;101875.75;6129759;28;20330;-70
2023/07/18 02:17:39;;;;;;;6.83;5.63;;;;;;;15.50;95.85;101874.94;6120434;28;20235;-69
2023/07/18 02:21:00;;;;;;;7.77;4.47;;;;;;;15.53;95.88;101871.91;6125451;28;21907;-69
2023/07/18 02:24:21;;;;;;;5.77;4.40;;;;;;;15.50;95.71;101874.94;6133027;28;20243;-69
2023/07/18 02:27:42;;;;;;;6.80;4.00;;;;;;;15.52;96.03;101876.47;6144172;28;20635;-69
2023/07/18 02:31:04;;;;;;;5.07;4.20;;;;;;;15.49;95.65;101878.63;6121758;28;20231;-70
2023/07/18 02:34:26;;;;;;;8.33;3.80;;;;;;;15.47;96.21;101869.75;6128951;28;20235;-69
2023/07/18 02:37:47;;;;;;;4.77;4.27;;;;;;;15.34;96.00;101875.44;6110711;28;20467;-70
2023/07/18 02:41:08;;;;;;;5.53;4.60;;;;;;;15.37;96.29;101875.19;6113202;28;20480;-69
2023/07/18 02:44:29;;;;;;;6.33;4.43;;;;;;;15.60;96.00;101870.34;6137181;28;20239;-69
2023/07/18 02:47:51;;;;;;;8.13;5.40;;;;;;;15.57;96.23;101868.75;6129251;28;20235;-69
2023/07/18 02:51:12;;;;;;;6.57;5.13;;;;;;;15.42;95.56;101874.72;6118510;28;20254;-70
2023/07/18 02:54:33;;;;;;;6.10;5.47;;;;;;;15.41;96.21;101864.88;6121064;28;20243;-70
2023/07/18 02:57:53;;;;;;;6.20;4.47;;;;;;;15.42;95.90;101866.56;6083356;28;20251;-69
2023/07/18 03:01:14;;;;;;;6.00;4.20;;;;;;;15.47;95.55;101862.47;6122422;28;20222;-69
2023/07/18 03:04:37;;;;;;;7.50;4.77;;;;;;;15.63;95.39;101864.59;6125339;28;20231;-69
2023/07/18 03:07:58;;;;;;;4.13;3.80;;;;;;;15.60;94.78;101876.63;6114831;28;20311;-69
2023/07/18 03:11:19;;;;;;;6.23;5.23;;;;;;;15.45;95.05;101883.50;6121338;28;20306;-70
2023/07/18 03:14:40;;;;;;;6.90;4.27;;;;;;;15.42;94.86;101885.59;6128671;28;20230;-70
2023/07/18 03:18:00;;;;;;;5.37;4.83;;;;;;;15.42;95.30;101882.88;6118005;28;20239;-69
2023/07/18 03:21:22;;;;;;;8.00;5.60;;;;;;;15.43;95.13;101888.22;6120970;28;20235;-70
2023/07/18 03:24:43;;;;;;;6.40;4.70;;;;;;;15.19;95.88;101896.75;6113187;28;20546;-69
2023/07/18 03:28:04;;;;;;;9.77;5.60;;;;;;;15.25;95.88;101895.31;6114590;28;20231;-69
2023/07/18 03:31:28;;;;;;;5.83;4.53;;;;;;;15.22;96.07;101906.47;6110270;28;20607;-70
2023/07/18 03:34:50;;;;;;;5.07;4.23;;;;;;;15.27;95.90;101889.75;6123615;28;20514;-70
2023/07/18 03:38:13;;;;;;;6.03;4.40;;;;;;;15.37;96.41;101883.34;6119736;28;20239;-71
2023/07/18 03:41:34;;;;;;;8.17;5.43;;;;;;;15.39;95.86;101894.91;6111055;28;20586;-70
2023/07/18 03:44:55;;;;;;;5.00;3.83;;;;;;;15.58;95.55;101891.38;6119826;28;20235;-70
2023/07/18 03:48:16;;;;;;;7.90;4.77;;;;;;;15.39;95.65;101892.19;6124749;28;20613;-70
2023/07/18 03:51:38;;;;;;;4.63;3.97;;;;;;;15.58;95.64;101894.09;6121156;28;20737;-70
2023/07/18 03:55:00;;;;;;;5.07;4.47;;;;;;;15.47;95.32;101884.22;6123161;28;20272;-70
2023/07/18 03:58:21;;;;;;;4.87;4.37;;;;;;;15.65;95.02;101889.78;6121706;28;20242;-70
2023/07/18 04:01:42;;;;;;;6.57;5.33;;;;;;;15.69;94.63;101892.06;6119970;28;20350;-70
2023/07/18 04:05:03;;;;;;;8.83;4.70;;;;;;;15.62;94.90;101890.94;6116763;28;20679;-70
2023/07/18 04:08:24;;;;;;;7.47;3.80;;;;;;;15.66;94.78;101891.50;6118131;28;20235;-70
2023/07/18 04:11:47;;;;;;;6.97;4.77;;;;;;;15.79;94.55;101892.91;6123090;28;20234;-70
2023/07/18 04:15:09;;;;;;;11.33;5.50;;;;;;;15.92;93.94;101889.88;6116403;28;20227;-70
2023/07/18 04:18:30;;;;;;;9.20;5.37;;;;;;;16.07;94.19;101888.44;6133922;28;20239;-70
2023/07/18 04:21:50;;;;;;;9.27;5.80;;;;;;;15.97;93.49;101885.75;6128625;28;20691;-70
2023/07/18 04:25:11;;;;;;;7.23;4.90;;;;;;;16.10;93.58;101892.72;6115741;28;20340;-70
2023/07/18 04:28:36;;;;;;;7.73;4.80;;;;;;;16.16;92.70;101886.69;6127442;28;20224;-70
2023/07/18 04:31:57;;;;;;;6.40;5.17;;;;;;;15.95;92.89;101895.91;6125321;28;20255;-70
2023/07/18 04:35:18;;;;;;;6.77;4.97;;;;;;;15.86;93.11;101893.19;6118411;28;20231;-71
2023/07/18 04:38:39;;;;;;;5.83;3.97;;;;;;;15.99;92.80;101886.47;6112796;28;20320;-70
2023/07/18 04:42:00;;;;;;;5.63;4.30;;;;;;;16.25;92.62;101883.09;6104981;28;20565;-70
2023/07/18 04:45:22;;;;;;;10.27;5.00;;;;;;;16.19;92.84;101884.53;6093697;28;20239;-70
2023/07/18 04:48:43;;;;;;;7.47;4.67;;;;;;;16.19;92.48;101880.97;6123634;28;20346;-69
2023/07/18 04:52:04;;;;;;;9.77;5.93;;;;;;;15.99;92.87;101888.31;6110886;28;20270;-68
2023/07/18 04:55:25;;;;;;;9.87;4.30;;;;;;;16.12;92.65;101891.59;6088292;28;20251;-69
2023/07/18 04:58:46;;;;;;;7.10;5.70;;;;;;;16.22;92.03;101894.25;6131681;28;20235;-70
2023/07/18 05:02:08;;;;;;;6.67;5.00;;;;;;;16.37;91.57;101893.66;6105414;28;20236;-70
2023/07/18 05:05:30;;;;;;;6.17;4.73;;;;;;;16.41;91.61;101899.66;6108188;28;20242;-69
2023/07/18 05:08:51;;;;;;;11.90;4.80;;;;;;;16.37;91.43;101895.50;6110081;28;20228;-70
2023/07/18 05:12:12;;;;;;;11.97;5.20;;;;;;;16.32;91.48;101908.69;6116956;28;20238;-69
2023/07/18 05:15:32;;;;;;;5.80;4.40;;;;;;;16.39;91.42;101907.09;6107789;28;20227;-69
2023/07/18 05:18:55;;;;;;;6.90;5.13;;;;;;;16.40;91.19;101904.22;6119955;28;20619;-69
2023/07/18 05:22:15;;;;;;;4.90;4.20;;;;;;;16.60;90.97;101899.63;6127616;28;20253;-69
2023/07/18 05:25:36;;;;;;;10.43;5.43;;;;;;;16.62;90.48;101903.91;6118891;28;20255;-69
2023/07/18 05:28:57;;;;;;;10.13;6.03;;;;;;;16.86;89.95;101902.47;6123366;28;20256;-69
2023/07/18 05:32:18;;;;;;;9.20;4.13;;;;;;;16.75;89.54;101895.38;6123367;28;20227;-70
2023/07/18 05:35:40;;;;;;;5.63;4.13;;;;;;;17.12;88.99;101898.91;6117391;28;20260;-70
2023/07/18 05:39:01;;;;;;;6.40;4.10;;;;;;;17.00;88.76;101902.81;6127476;28;20395;-69
2023/07/18 05:42:22;;;;;;;5.67;4.33;;;;;;;17.35;88.18;101899.31;6133016;28;20231;-69
2023/07/18 05:45:42;;;;;;;10.77;4.82;;;;;;;17.03;88.34;101897.09;6132187;28;20239;-70
2023/07/18 05:49:03;;;;;;;4.70;3.57;;;;;;;16.90;88.51;101901.19;6144363;28;20228;-70
2023/07/18 05:52:25;;;;;;;12.83;4.90;;;;;;;16.92;88.54;101897.28;6125707;28;20517;-69
2023/07/18 05:55:46;;;;;;;7.70;4.93;;;;;;;17.13;88.49;101906.03;6101003;28;20256;-69
2023/07/18 05:59:07;;;;;;;5.77;4.63;;;;;;;17.06;88.48;101904.97;6102379;28;20606;-68
2023/07/18 06:02:28;;;;;;;7.23;4.90;;;;;;;17.09;88.31;101901.91;6127899;28;21041;-69
2023/07/18 06:05:53;;;;;;;6.73;4.53;;;;;;;17.49;87.52;101896.94;6127359;28;20239;-69
2023/07/18 06:09:16;;;;;;;7.22;4.18;;;;;;;17.61;86.71;101902.16;6122487;28;20243;-69
2023/07/18 06:12:37;;;;;;;5.55;3.58;;;;;;;17.49;86.67;101901.47;6126041;28;20236;-69
2023/07/18 06:15:58;;;;;;;8.32;5.50;;;;;;;17.84;86.06;101901.50;6124571;28;20239;-69
2023/07/18 06:19:19;;;;;;;4.72;3.53;;;;;;;17.99;85.76;101904.50;6132575;28;20227;-69
2023/07/18 06:22:40;;;;;;;9.48;3.60;;;;;;;17.86;84.96;101918.56;6134516;28;20234;-69
2023/07/18 06:26:04;;;;;;;9.30;4.72;;;;;;;17.71;85.82;101911.94;6124976;28;20226;-70
2023/07/18 06:29:25;;;;;;;5.75;4.28;;;;;;;17.92;85.64;101915.19;6134530;28;20640;-69
2023/07/18 06:32:45;;;;;;;8.50;3.58;;;;;;;18.07;85.45;101905.44;6128491;28;20231;-69
2023/07/18 06:36:06;;;;;;;10.07;4.28;;;;;;;18.24;84.61;101909.97;6130438;28;20246;-69
2023/07/18 06:39:27;;;;;;;9.75;4.05;;;;;;;17.92;84.57;101917.91;6139255;28;20223;-69
2023/07/18 06:42:49;;;;;;;9.65;4.18;;;;;;;17.75;85.10;101924.28;6124382;28;20239;-69
2023/07/18 06:46:11;;;;;;;11.75;3.83;;;;;;;17.67;85.12;101920.63;6126008;28;20329;-70
2023/07/18 06:49:32;;;;;;;8.13;3.58;;;;;;;17.61;85.51;101921.25;6141358;28;20246;-70
2023/07/18 06:52:52;;;;;;;6.72;3.65;;;;;;;17.81;85.96;101918.19;6139863;28;20235;-70
2023/07/18 06:56:13;;;;;;;10.38;5.22;;;;;;;17.43;86.05;101923.91;6127560;28;21779;-69
2023/07/18 06:59:35;;;;;;;7.63;3.90;;;;;;;17.53;86.28;101922.88;6132295;28;20231;-68
2023/07/18 07:02:56;;;;;;;5.90;4.47;;;;;;;17.38;86.76;101924.38;6115066;28;20309;-69
2023/07/18 07:06:20;;;;;;;9.00;3.72;;;;;;;17.79;86.48;101916.63;6121669;28;20243;-69
2023/07/18 07:09:41;;;;;;;8.13;4.70;;;;;;;17.94;85.71;101920.50;6129627;28;20589;-69
2023/07/18 07:13:01;;;;;;;5.32;4.13;;;;;;;18.41;84.81;101918.28;6128374;28;20243;-69
2023/07/18 07:16:24;;;;;;;6.13;3.83;;;;;;;18.38;84.03;101931.22;6125630;28;20231;-69
2023/07/18 07:19:45;;;;;;;6.78;4.47;;;;;;;18.61;83.38;101917.91;6130071;28;20232;-69
2023/07/18 07:23:06;;;;;;;6.30;3.70;;;;;;;18.67;82.90;101921.88;6126135;28;20231;-69
2023/07/18 07:26:27;;;;;;;8.60;4.35;;;;;;;18.79;82.45;101921.44;6119312;28;20242;-68
2023/07/18 07:29:47;;;;;;;5.25;3.88;;;;;;;18.82;81.59;101917.50;6130782;28;20337;-69
2023/07/18 07:33:10;;;;;;;3.88;3.00;;;;;;;18.37;82.09;101920.47;6136325;28;20226;-69
2023/07/18 07:36:33;;;;;;;4.25;2.97;;;;;;;18.67;82.10;101917.25;6125464;28;20318;-69
2023/07/18 07:39:54;;;;;;;7.65;4.25;;;;;;;18.02;83.43;101921.41;6136398;28;20238;-69
2023/07/18 07:43:14;;;;;;;7.53;4.13;;;;;;;18.34;83.70;101918.91;6130375;28;20240;-69
2023/07/18 07:46:35;;;;;;;7.00;4.45;;;;;;;18.55;83.43;101924.03;6126363;28;20238;-69
2023/07/18 07:49:58;;;;;;;5.78;3.33;;;;;;;18.94;82.63;101916.19;6127477;28;20226;-69
2023/07/18 07:53:18;;;;;;;7.97;3.40;;;;;;;19.67;80.90;101933.69;6138527;28;20605;-69
2023/07/18 07:56:39;;;;;;;5.07;4.20;;;;;;;19.24;79.84;101918.34;6127544;28;20227;-69
2023/07/18 08:00:00;;;;;;;4.45;2.70;;;;;;;19.45;79.50;101929.72;6127824;28;20317;-69
2023/07/18 08:03:21;;;;;;;3.70;3.38;;;;;;;18.89;79.20;101932.22;6127783;28;20256;-69
2023/07/18 08:06:43;;;;;;;7.07;3.17;;;;;;;19.26;79.39;101920.91;6129678;28;20616;-69
2023/07/18 08:10:04;;;;;;;3.22;2.83;;;;;;;19.38;78.14;101916.88;6129943;28;20239;-68
2023/07/18 08:13:27;;;;;;;4.75;3.35;;;;;;;19.76;77.27;101914.34;6130207;28;20226;-69
2023/07/18 08:16:48;;;;;;;3.75;2.97;;;;;;;20.09;76.49;101904.25;6130365;28;20260;-69
2023/07/18 08:20:10;;;;;;;5.25;2.60;;;;;;;19.85;74.82;101901.53;6116759;28;20231;-69
2023/07/18 08:23:33;;;;;;;7.97;3.60;;;;;;;20.20;74.96;101901.19;6133384;28;20235;-69
2023/07/18 08:26:53;;;;;;;11.38;3.15;;;;;;;20.56;73.38;101902.47;6127594;28;20253;-69
2023/07/18 08:30:14;;;;;;;4.07;2.60;;;;;;;20.46;72.42;101890.84;6116879;28;20239;-69
2023/07/18 08:33:35;;;;;;;3.55;2.00;;;;;;;19.89;71.86;101897.41;6132854;28;20235;-69
2023/07/18 08:36:56;;;;;;;4.63;2.20;;;;;;;20.48;71.04;101885.22;6119515;28;20238;-69
2023/07/18 08:40:18;;;;;;;8.50;2.25;;;;;;;20.25;70.99;101890.56;6113322;28;20224;-69
2023/07/18 08:43:39;;;;;;;5.00;2.50;;;;;;;20.32;70.58;101893.44;6118362;28;20235;-69
2023/07/18 08:47:05;;;;;;;4.22;2.45;;;;;;;19.89;71.69;101883.72;6111357;28;20227;-70
2023/07/18 08:50:26;;;;;;;3.28;1.92;;;;;;;20.41;69.96;101887.78;6113363;28;20295;-69
2023/07/18 08:53:47;;;;;;;2.53;1.83;;;;;;;21.09;67.68;101884.47;6131523;28;20242;-69
2023/07/18 08:57:12;;;;;;;2.03;1.63;;;;;;;21.03;65.17;101885.16;6125268;28;20227;-69
2023/07/18 09:00:32;;;;;;;3.78;1.90;;;;;;;20.52;66.78;101881.94;6119252;28;20227;-69
2023/07/18 09:03:53;;;;;;;3.25;2.15;;;;;;;21.51;65.63;101875.78;6132345;28;20227;-70
2023/07/18 09:07:14;;;;;;;3.03;1.98;;;;;;;21.33;64.24;101876.94;6115525;28;20248;-70
2023/07/18 09:10:35;;;;;;;1.50;1.40;;;;;;;21.11;64.51;101876.91;6113429;28;20240;-69
2023/07/18 09:13:58;;;;;;;2.67;1.50;;;;;;;21.23;63.89;101872.72;6107827;28;20231;-69
2023/07/18 09:17:19;;;;;;;8.32;1.95;;;;;;;21.02;63.20;101872.47;6133836;28;20353;-69
2023/07/18 09:20:39;;;;;;;1.35;1.25;;;;;;;21.06;64.20;101871.97;6129367;28;20224;-70
2023/07/18 09:24:00;;;;;;;1.58;1.42;;;;;;;20.82;64.35;101873.94;6122560;28;20326;-69
2023/07/18 09:27:21;;;;;;;3.22;2.50;;;;;;;21.35;64.05;101871.25;6117313;28;20231;-69
2023/07/18 09:30:43;;;;;;;1.73;1.38;;;;;;;21.29;63.28;101870.13;6126817;28;20232;-69
2023/07/18 09:34:12;;;;;;;6.82;2.60;;;;;;;21.15;63.39;101870.88;6131682;28;20243;-69
2023/07/18 09:37:45;;;;;;;3.65;1.50;;;;;;;21.01;63.92;101871.59;6122847;28;20595;-69
2023/07/18 09:41:07;;;;;;;3.47;1.73;;;;;;;21.81;63.52;101869.34;6118741;28;20224;-69
2023/07/18 09:44:29;;;;;;;4.60;2.15;;;;;;;21.51;63.00;101867.56;6126580;28;20227;-69
2023/07/18 09:47:53;;;;;;;2.65;1.67;;;;;;;20.97;64.39;101872.13;6144145;28;20605;-69
2023/07/18 09:51:16;;;;;;;1.70;1.58;;;;;;;20.77;65.08;101859.91;6135419;28;20247;-69
2023/07/18 09:54:37;;;;;;;3.47;1.63;;;;;;;20.65;65.41;101868.50;6137221;28;20243;-70
2023/07/18 09:58:01;;;;;;;2.13;1.48;;;;;;;21.17;64.25;101863.31;6129361;28;20243;-70
2023/07/18 10:01:23;;;;;;;3.50;1.52;;;;;;;21.17;62.81;101854.25;6119304;28;22046;-69
2023/07/18 10:04:48;;;;;;;3.50;2.58;;;;;;;21.25;62.39;101848.72;6134335;28;20330;-68
2023/07/18 10:08:09;;;;;;;2.60;1.35;;;;;;;22.03;60.98;101857.50;6130203;28;20259;-69
2023/07/18 10:11:30;;;;;;;3.13;2.05;;;;;;;21.70;60.52;101854.19;6110097;28;20243;-70
2023/07/18 10:14:57;;;;;;;2.08;1.55;;;;;;;21.47;59.96;101848.72;6118027;28;20231;-69
2023/07/18 10:18:18;;;;;;;2.28;1.60;;;;;;;21.29;60.69;101845.41;6130313;28;20231;-68
2023/07/18 10:21:45;;;;;;;1.65;1.42;;;;;;;21.41;60.42;101840.34;6112164;28;20379;-68
2023/07/18 10:25:07;;;;;;;1.90;1.65;;;;;;;22.35;58.67;101837.06;6117555;28;20231;-68
2023/07/18 10:28:42;;;;;;;1.17;1.08;;;;;;;22.84;56.92;101828.06;6133006;28;20243;-69
2023/07/18 10:32:04;;;;;;;1.48;1.15;;;;;;;22.12;56.20;101832.53;6121381;28;20318;-69
2023/07/18 10:35:27;;;;;;;3.10;1.50;;;;;;;22.30;56.97;101828.56;6125915;28;20243;-69
2023/07/18 10:38:52;;;;;;;1.52;1.05;;;;;;;22.15;56.86;101837.63;6121791;28;20235;-70
2023/07/18 10:42:20;;;;;;;4.45;1.52;;;;;;;21.81;57.43;101837.28;6139532;28;20230;-69
2023/07/18 10:45:42;;;;;;;1.65;1.23;;;;;;;22.23;57.64;101822.97;6132162;28;20227;-70
2023/07/18 10:49:03;;;;;;;1.42;1.33;;;;;;;22.22;57.55;101818.50;6125660;28;20227;-70
2023/07/18 10:52:24;;;;;;;3.20;1.17;;;;;;;23.11;56.58;101811.88;6119793;28;20263;-70
2023/07/18 10:55:47;;;;;;;1.95;1.55;;;;;;;23.02;55.82;101805.63;6122057;28;20336;-69
2023/07/18 10:59:08;;;;;;;3.75;1.58;;;;;;;23.29;55.42;101804.00;6111178;28;20235;-68
2023/07/18 11:02:36;;;;;;;1.50;1.08;;;;;;;23.21;53.75;101799.50;6136736;28;20236;-68
2023/07/18 11:05:57;;;;;;;4.50;1.58;;;;;;;23.70;54.46;101800.41;6128951;28;20222;-69
2023/07/18 11:09:18;;;;;;;1.30;1.00;;;;;;;23.89;54.08;101795.25;6133682;28;20505;-69
2023/07/18 11:12:40;;;;;;;1.30;1.23;;;;;;;23.86;53.14;101787.41;6110720;28;20253;-69
2023/07/18 11:16:03;;;;;;;0.80;0.80;;;;;;;23.65;53.62;101791.03;6124664;28;20243;-69
2023/07/18 11:19:24;;;;;;;1.70;0.85;;;;;;;23.99;53.21;101784.75;6117674;28;20362;-69
2023/07/18 11:22:45;;;;;;;1.25;1.05;;;;;;;23.60;53.09;101780.63;6125230;28;20254;-69
2023/07/18 11:26:12;;;;;;;2.17;1.33;;;;;;;23.70;52.50;101781.13;6127998;28;20820;-68
2023/07/18 11:29:34;;;;;;;1.50;0.95;;;;;;;23.60;53.55;101783.38;6128173;28;20342;-69
2023/07/18 11:32:54;;;;;;;1.45;1.35;;;;;;;23.92;52.97;101781.94;6134089;28;20231;-69
2023/07/18 11:36:15;;;;;;;1.23;1.08;;;;;;;23.17;53.57;101770.66;6120724;28;20235;-69
2023/07/18 11:39:36;;;;;;;2.47;1.27;;;;;;;23.26;53.66;101774.16;6132343;28;20227;-68
2023/07/18 11:42:58;;;;;;;1.65;1.05;;;;;;;24.10;53.41;101764.91;6135650;28;20251;-69
2023/07/18 11:46:34;;;;;;;3.72;1.70;;;;;;;22.99;54.02;101756.50;6132516;28;20230;-68
2023/07/18 11:50:01;;;;;;;5.30;1.65;;;;;;;23.99;52.91;101757.19;6132800;28;20469;-69
2023/07/18 11:53:26;;;;;;;2.53;1.90;;;;;;;24.02;52.63;101762.28;6134332;28;20251;-69
2023/07/18 11:56:47;;;;;;;2.53;1.00;;;;;;;23.78;52.22;101753.44;6118794;28;20247;-70
2023/07/18 12:00:10;;;;;;;1.60;1.00;;;;;;;24.18;52.28;101754.56;6125041;28;20235;-69
2023/07/18 12:03:36;;;;;;;1.25;0.95;;;;;;;23.81;52.60;101760.44;6127735;28;20236;-69
2023/07/18 12:06:57;;;;;;;1.80;1.23;;;;;;;24.41;51.91;101762.53;6131598;28;20326;-69
2023/07/18 12:10:18;;;;;;;2.40;0.93;;;;;;;24.58;51.56;101753.72;6122722;28;20235;-69
2023/07/18 12:13:40;;;;;;;0.93;0.70;;;;;;;25.42;50.78;101756.06;6132683;28;20334;-69
2023/07/18 12:17:01;;;;;;;2.60;1.15;;;;;;;24.79;49.48;101747.22;6121985;28;20235;-69
2023/07/18 12:20:23;;;;;;;1.80;0.90;;;;;;;25.19;48.87;101742.63;6118902;28;20325;-69
2023/07/18 12:23:44;;;;;;;1.17;1.02;;;;;;;25.34;49.17;101740.53;6122773;28;20223;-69
2023/07/18 12:27:05;;;;;;;1.60;1.02;;;;;;;24.80;48.97;101740.66;6121583;28;20570;-68
2023/07/18 12:30:30;;;;;;;1.27;0.70;;;;;;;24.80;49.12;101745.31;6118918;28;20236;-69
2023/07/18 12:33:51;;;;;;;7.15;1.10;;;;;;;23.84;49.64;101747.09;6130268;28;20242;-69
2023/07/18 12:37:14;;;;;;;0.80;0.70;;;;;;;24.91;48.45;101744.72;6131013;28;20450;-68
2023/07/18 12:40:34;;;;;;;1.15;0.70;;;;;;;24.85;47.22;101731.75;6122176;28;20864;-68
2023/07/18 12:43:55;;;;;;;0.90;0.90;;;;;;;25.03;47.25;101741.13;6139808;28;20234;-69
2023/07/18 12:47:16;;;;;;;1.30;1.00;;;;;;;24.57;48.58;101740.97;6124799;28;20234;-68
2023/07/18 12:50:37;;;;;;;2.45;1.23;;;;;;;24.94;49.19;101739.63;6131623;28;20255;-69
2023/07/18 12:53:59;;;;;;;1.27;1.17;;;;;;;24.92;49.54;101730.72;6145706;28;20246;-69
2023/07/18 12:57:20;;;;;;;2.22;1.38;;;;;;;23.86;50.97;101722.13;6125280;28;20246;-69
2023/07/18 17:42:04;;;;;;;6.68;5.80;;;;;;;22.15;61.17;101529.94;6058199;28;20263;-67
2023/07/18 17:45:27;;;;;;;3.40;2.88;;;;;;;22.20;60.46;101532.13;6116629;28;20271;-65
2023/07/18 17:48:48;;;;;;;5.88;4.00;;;;;;;22.20;60.16;101532.97;6134755;28;20317;-68
2023/07/18 17:52:10;;;;;;;6.93;4.70;;;;;;;22.15;59.50;101529.94;6136730;28;20680;-67
2023/07/18 17:55:32;;;;;;;17.45;15.68;;;;;;;22.10;59.64;101524.22;6098026;28;20250;-65
2023/07/18 17:58:55;;;;;;;5.80;5.22;;;;;;;22.13;59.39;101526.56;6120715;28;20244;-66
2023/07/18 18:02:16;;;;;;;5.00;3.85;;;;;;;22.09;59.64;101533.47;6122780;28;20505;-65
2023/07/18 18:05:45;;;;;;;2.70;2.40;;;;;;;21.97;58.81;101529.56;6115293;28;20330;-66
2023/07/18 18:09:06;;;;;;;2.38;2.13;;;;;;;21.92;59.30;101528.44;6094746;28;20599;-66
2023/07/18 18:12:29;;;;;;;2.35;2.10;;;;;;;21.69;59.89;101525.81;6102658;28;20702;-68
2023/07/18 18:15:52;;;;;;;4.60;1.73;;;;;;;21.73;60.64;101518.91;6109393;28;20321;-66
2023/07/18 18:19:13;;;;;;;5.32;4.68;;;;;;;21.66;60.24;101512.47;6123931;28;20563;-67
2023/07/18 18:22:35;;;;;;;2.00;1.80;;;;;;;21.71;60.71;101503.66;6121131;28;20227;-67
2023/07/18 18:25:57;;;;;;;1.35;1.25;;;;;;;21.76;60.62;101496.53;6088768;28;20230;-67
2023/07/18 18:29:21;;;;;;;1.70;1.60;;;;;;;21.71;60.72;101504.53;6110184;28;20772;-66
2023/07/18 18:32:44;;;;;;;2.47;1.13;;;;;;;21.65;60.66;101499.81;6130346;28;20247;-66
2023/07/18 18:36:06;;;;;;;11.40;8.68;;;;;;;21.65;61.33;101499.81;6097454;28;20310;-68
2023/07/18 18:39:28;;;;;;;4.30;3.75;;;;;;;21.63;61.46;101487.31;6129111;28;20230;-67
2023/07/18 18:42:49;;;;;;;5.35;4.85;;;;;;;21.57;61.84;101485.34;6129081;28;20235;-66
2023/07/18 18:46:11;;;;;;;6.80;5.32;;;;;;;21.54;61.93;101482.97;6119258;28;20235;-67
2023/07/18 18:49:33;;;;;;;18.45;14.35;;;;;;;21.49;61.80;101480.81;6125191;28;20230;-67
2023/07/18 18:52:54;;;;;;;10.82;3.35;;;;;;;21.42;62.26;101477.16;6129571;28;20231;-67
2023/07/18 18:56:16;;;;;;;18.38;16.48;;;;;;;21.33;62.58;101481.88;6127731;28;20235;-67
2023/07/18 18:59:37;;;;;;;10.82;9.75;;;;;;;21.27;62.81;101485.41;6120055;28;20235;-66
2023/07/18 19:02:59;;;;;;;5.05;4.40;;;;;;;21.31;62.87;101492.19;6128521;28;20310;-66
2023/07/18 19:06:22;;;;;;;2.95;2.50;;;;;;;21.19;63.17;101495.63;6127637;28;20239;-66
2023/07/18 19:09:44;;;;;;;9.95;9.07;;;;;;;21.03;63.95;101490.28;6114379;28;20544;-66
2023/07/18 19:13:05;;;;;;;8.27;7.45;;;;;;;21.05;64.00;101486.34;6129119;28;20242;-66
2023/07/18 19:16:27;;;;;;;3.47;2.03;;;;;;;21.00;64.21;101487.91;6099637;28;20326;-66
2023/07/18 19:19:49;;;;;;;1.98;1.80;;;;;;;20.82;64.56;101484.72;6120513;28;20242;-65
2023/07/18 19:23:13;;;;;;;3.28;1.95;;;;;;;20.85;65.08;101487.06;6122932;28;20650;-66
2023/07/18 19:26:34;;;;;;;2.70;2.45;;;;;;;20.87;65.31;101488.56;6130803;28;20235;-65
2023/07/18 19:29:55;;;;;;;2.38;1.38;;;;;;;20.77;65.68;101487.16;6121361;28;20318;-66
2023/07/18 19:33:17;;;;;;;1.25;1.13;;;;;;;20.72;65.80;101479.47;6116481;28;20251;-66
2023/07/18 19:36:38;;;;;;;2.45;1.48;;;;;;;20.79;66.08;101474.97;6114939;28;20232;-66
2023/07/18 19:40:01;;;;;;;1.25;1.15;;;;;;;20.77;66.14;101479.78;6099066;28;20782;-66
2023/07/18 19:43:22;;;;;;;2.75;1.70;;;;;;;20.87;66.05;101471.25;6129863;28;20258;-66
2023/07/18 19:46:44;;;;;;;1.17;1.17;;;;;;;20.92;66.15;101469.69;6119986;28;20242;-66
2023/07/18 19:50:06;;;;;;;2.78;1.45;;;;;;;20.92;66.02;101474.31;6122947;28;20463;-65
2023/07/18 19:53:27;;;;;;;1.33;1.23;;;;;;;20.88;66.08;101472.97;6123714;28;20223;-65
2023/07/18 19:56:50;;;;;;;3.08;1.30;;;;;;;20.81;66.64;101469.28;6112222;28;20326;-65
2023/07/18 20:00:12;;;;;;;1.30;1.20;;;;;;;20.81;66.74;101472.88;6121051;28;20499;-65
2023/07/18 20:03:34;;;;;;;2.42;2.00;;;;;;;20.69;66.99;101471.66;6127488;28;20561;-65
2023/07/18 20:06:55;;;;;;;1.50;1.10;;;;;;;20.87;67.13;101465.78;6117791;28;20601;-66
2023/07/18 20:10:16;;;;;;;3.17;2.17;;;;;;;20.92;66.62;101468.81;6123306;28;20271;-66
2023/07/18 20:13:39;;;;;;;2.33;1.67;;;;;;;20.73;67.20;101464.75;6126824;28;20231;-66
2023/07/18 20:17:01;;;;;;;1.48;1.13;;;;;;;20.61;67.41;101460.78;6131082;28;20329;-65
2023/07/18 20:20:22;;;;;;;3.38;2.08;;;;;;;20.66;67.57;101456.44;6108735;28;20333;-67